createdAt,value
2023-03-29T00:00:13.115Z,0.10
2023-03-29T00:02:42.563Z,0.10
2023-03-29T00:05:10.641Z,0.10
2023-03-29T00:07:38.516Z,0.10
2023-03-29T00:10:07.988Z,0.30
2023-03-29T00:12:37.276Z,0.10
2023-03-29T00:15:05.873Z,0.10
2023-03-29T00:17:34.108Z,0.10
2023-03-29T00:20:02.072Z,0.30
2023-03-29T00:22:33.065Z,0.10
2023-03-29T00:25:01.887Z,0.10
2023-03-29T00:27:30.065Z,0.10
2023-03-29T00:30:00.719Z,0.10
2023-03-29T00:32:28.720Z,0.10
2023-03-29T00:34:57.004Z,0.10
2023-03-29T00:37:30.050Z,0.10
2023-03-29T00:39:58.201Z,0.10
2023-03-29T00:42:27.529Z,0.10
2023-03-29T00:44:55.913Z,0.10
2023-03-29T00:47:46.823Z,0.20
2023-03-29T00:50:18.552Z,0.10
2023-03-29T00:52:47.612Z,0.10
2023-03-29T00:55:17.622Z,0.10
2023-03-29T00:57:46.571Z,0.20
2023-03-29T01:00:22.331Z,0.10
2023-03-29T01:02:54.550Z,0.10
2023-03-29T01:05:25.934Z,0.20
2023-03-29T01:07:58.077Z,0.10
2023-03-29T01:10:31.798Z,0.10
2023-03-29T01:13:02.112Z,0.10
2023-03-29T01:15:30.226Z,0.10
2023-03-29T01:17:58.462Z,0.10
2023-03-29T01:20:51.001Z,0.10
2023-03-29T01:23:31.329Z,0.10
2023-03-29T01:26:14.559Z,0.10
2023-03-29T01:28:47.218Z,0.20
2023-03-29T01:31:22.817Z,0.20
2023-03-29T01:33:52.811Z,0.00
2023-03-29T01:36:29.837Z,0.10
2023-03-29T01:38:58.765Z,0.10
2023-03-29T01:41:29.591Z,0.10
2023-03-29T01:43:59.307Z,0.10
2023-03-29T01:46:30.241Z,0.10
2023-03-29T01:48:59.348Z,0.10
2023-03-29T01:51:30.644Z,0.10
2023-03-29T01:54:03.246Z,0.10
2023-03-29T01:56:36.913Z,0.10
2023-03-29T01:59:09.413Z,0.10
2023-03-29T02:01:42.546Z,0.10
2023-03-29T02:04:13.161Z,0.10
2023-03-29T02:06:45.139Z,0.10
2023-03-29T02:09:12.924Z,0.10
2023-03-29T02:11:41.107Z,0.20
2023-03-29T02:14:10.486Z,0.10
2023-03-29T02:16:39.445Z,0.10
2023-03-29T02:19:07.872Z,0.10
2023-03-29T02:21:37.453Z,0.10
2023-03-29T02:24:06.571Z,0.10
2023-03-29T02:26:34.586Z,0.10
2023-03-29T02:29:02.744Z,0.00
2023-03-29T02:31:41.198Z,0.10
2023-03-29T02:34:32.928Z,0.20
2023-03-29T02:37:02.408Z,0.10
2023-03-29T02:39:36.013Z,0.10
2023-03-29T02:42:04.173Z,0.10
2023-03-29T02:44:32.625Z,0.10
2023-03-29T02:47:10.719Z,0.10
2023-03-29T02:49:38.958Z,0.10
2023-03-29T02:52:08.949Z,0.10
2023-03-29T02:54:38.021Z,0.20
2023-03-29T02:57:10.292Z,0.10
2023-03-29T02:59:41.144Z,0.20
2023-03-29T03:02:08.958Z,0.10
2023-03-29T03:04:37.823Z,0.10
2023-03-29T03:07:06.128Z,0.10
2023-03-29T03:09:34.360Z,0.10
2023-03-29T03:12:02.685Z,0.10
2023-03-29T03:14:30.738Z,0.10
2023-03-29T03:16:59.960Z,0.10
2023-03-29T03:19:31.912Z,0.10
2023-03-29T03:21:59.984Z,0.10
2023-03-29T03:24:32.778Z,0.10
2023-03-29T03:27:02.203Z,0.10
2023-03-29T03:29:30.215Z,0.10
2023-03-29T03:32:12.560Z,0.10
2023-03-29T03:34:59.732Z,0.10
2023-03-29T03:37:27.958Z,0.10
2023-03-29T03:39:56.611Z,0.10
2023-03-29T03:42:27.408Z,0.10
2023-03-29T03:44:55.713Z,0.10
2023-03-29T03:47:30.838Z,0.10
2023-03-29T03:52:32.355Z,0.10
2023-03-29T03:55:02.945Z,0.20
2023-03-29T03:57:42.857Z,0.40
2023-03-29T04:00:19.542Z,0.40
2023-03-29T04:02:54.392Z,0.40
2023-03-29T04:05:22.720Z,0.40
2023-03-29T04:07:50.993Z,0.30
2023-03-29T04:10:30.623Z,0.20
2023-03-29T04:13:12.909Z,0.20
2023-03-29T04:16:02.026Z,0.20
2023-03-29T04:18:31.651Z,0.30
2023-03-29T04:21:01.515Z,0.20
2023-03-29T04:23:29.858Z,0.20
2023-03-29T04:25:59.434Z,0.20
2023-03-29T04:28:46.566Z,0.20
2023-03-29T04:31:33.084Z,0.20
2023-03-29T04:34:14.860Z,0.20
2023-03-29T04:36:44.496Z,0.40
2023-03-29T04:39:18.137Z,0.30
2023-03-29T04:41:55.527Z,0.20
2023-03-29T04:44:28.103Z,0.30
2023-03-29T04:46:58.027Z,0.20
2023-03-29T04:49:47.077Z,0.30
2023-03-29T04:54:55.798Z,0.30
2023-03-29T04:57:39.462Z,0.30
2023-03-29T05:00:27.216Z,0.30
2023-03-29T05:03:11.621Z,0.30
2023-03-29T05:05:41.795Z,0.20
2023-03-29T05:08:13.164Z,0.40
2023-03-29T05:11:10.908Z,0.30
2023-03-29T05:13:39.288Z,0.40
2023-03-29T05:16:07.919Z,0.30
2023-03-29T05:18:36.228Z,0.50
2023-03-29T05:21:05.106Z,0.30
2023-03-29T05:23:36.226Z,0.30
2023-03-29T05:26:23.344Z,0.30
2023-03-29T05:28:53.556Z,0.30
2023-03-29T05:31:21.720Z,0.30
2023-03-29T05:33:52.043Z,0.20
2023-03-29T05:36:20.631Z,0.20
2023-03-29T05:38:51.980Z,0.20
2023-03-29T05:41:24.021Z,0.30
2023-03-29T05:44:16.965Z,0.40
2023-03-29T05:46:45.631Z,0.30
2023-03-29T05:49:16.544Z,0.30
2023-03-29T05:52:10.864Z,0.40
2023-03-29T05:54:39.262Z,0.30
2023-03-29T05:57:07.392Z,0.30
2023-03-29T05:59:35.762Z,0.30
2023-03-29T06:02:05.082Z,0.30
2023-03-29T06:04:33.892Z,0.20
2023-03-29T06:07:23.640Z,0.20
2023-03-29T06:12:49.519Z,0.30
2023-03-29T06:15:19.897Z,0.30
2023-03-29T06:17:50.878Z,0.40
2023-03-29T06:20:19.473Z,0.30
2023-03-29T06:22:50.925Z,0.20
2023-03-29T06:25:19.927Z,0.30
2023-03-29T06:27:49.712Z,0.30
2023-03-29T06:30:19.752Z,0.40
2023-03-29T06:33:02.417Z,0.20
2023-03-29T06:35:59.791Z,0.70
2023-03-29T06:38:34.122Z,0.20
2023-03-29T06:41:21.648Z,0.30
2023-03-29T06:44:08.921Z,0.30
2023-03-29T06:46:39.540Z,0.30
2023-03-29T06:49:08.594Z,0.20
2023-03-29T06:51:47.031Z,0.30
2023-03-29T06:54:15.554Z,0.20
2023-03-29T06:59:20.715Z,0.30
2023-03-29T07:02:12.613Z,0.30
2023-03-29T07:04:56.310Z,0.30
2023-03-29T07:07:53.556Z,0.20
2023-03-29T07:10:42.810Z,0.30
2023-03-29T07:13:33.115Z,0.40
2023-03-29T07:16:03.936Z,0.20
2023-03-29T07:18:44.116Z,0.20
2023-03-29T07:21:16.423Z,0.20
2023-03-29T07:23:44.347Z,0.20
2023-03-29T07:26:12.656Z,0.30
2023-03-29T07:28:40.987Z,0.30
2023-03-29T07:31:11.036Z,0.30
2023-03-29T07:33:45.521Z,0.30
2023-03-29T07:36:18.562Z,0.20
2023-03-29T07:38:48.308Z,0.30
2023-03-29T07:41:19.744Z,0.20
2023-03-29T07:43:52.399Z,0.20
2023-03-29T07:46:26.652Z,0.20
2023-03-29T07:48:56.847Z,0.20
2023-03-29T07:51:25.378Z,0.30
2023-03-29T07:53:59.945Z,0.30
2023-03-29T07:56:51.520Z,0.30
2023-03-29T07:59:46.827Z,0.30
2023-03-29T08:02:21.097Z,0.30
2023-03-29T08:04:51.269Z,0.30
2023-03-29T08:07:22.054Z,0.30
2023-03-29T08:10:20.395Z,0.30
2023-03-29T08:13:09.787Z,0.30
2023-03-29T08:15:58.363Z,0.30
2023-03-29T08:18:33.518Z,0.20
2023-03-29T08:21:08.319Z,0.20
2023-03-29T08:23:37.065Z,0.20
2023-03-29T08:26:23.430Z,0.40
2023-03-29T08:28:51.519Z,0.50
2023-03-29T08:31:19.902Z,0.50
2023-03-29T08:33:47.796Z,0.50
2023-03-29T08:36:34.725Z,0.80
2023-03-29T08:39:13.294Z,0.60
2023-03-29T08:41:54.296Z,0.50
2023-03-29T08:44:26.604Z,0.40
2023-03-29T08:47:16.142Z,0.50
2023-03-29T08:49:45.547Z,0.50
2023-03-29T08:52:24.285Z,0.50
2023-03-29T08:54:52.506Z,0.50
2023-03-29T08:57:31.187Z,0.50
2023-03-29T09:00:05.600Z,0.30
2023-03-29T09:02:34.880Z,0.40
2023-03-29T09:05:22.760Z,0.30
2023-03-29T09:08:11.779Z,0.40
2023-03-29T09:10:41.688Z,0.30
2023-03-29T09:13:25.772Z,0.40
2023-03-29T09:16:03.725Z,0.40
2023-03-29T09:18:41.533Z,0.40
2023-03-29T09:21:31.423Z,0.40
2023-03-29T09:24:05.730Z,0.30
2023-03-29T09:26:57.170Z,0.30
2023-03-29T09:30:04.818Z,0.20
2023-03-29T09:33:07.909Z,0.30
2023-03-29T09:35:58.326Z,0.30
2023-03-29T09:38:28.034Z,0.30
2023-03-29T09:41:07.827Z,0.30
2023-03-29T09:43:36.414Z,0.20
2023-03-29T09:46:11.064Z,0.40
2023-03-29T09:48:39.948Z,0.40
2023-03-29T09:51:07.901Z,0.30
2023-03-29T09:53:56.117Z,0.20
2023-03-29T09:56:43.163Z,0.30
2023-03-29T09:59:15.068Z,0.30
2023-03-29T10:01:46.780Z,0.30
2023-03-29T10:04:16.828Z,0.30
2023-03-29T10:06:51.433Z,0.40
2023-03-29T10:09:20.675Z,0.40
2023-03-29T10:11:54.021Z,0.30
2023-03-29T10:14:31.889Z,0.50
2023-03-29T10:16:59.696Z,0.40
2023-03-29T10:19:34.637Z,0.40
2023-03-29T10:22:14.575Z,0.30
2023-03-29T10:24:47.684Z,0.40
2023-03-29T10:27:15.512Z,0.30
2023-03-29T10:29:43.360Z,0.40
2023-03-29T10:32:18.749Z,0.40
2023-03-29T10:34:48.038Z,0.40
2023-03-29T10:38:00.231Z,0.20
2023-03-29T10:40:32.249Z,0.20
2023-03-29T10:43:00.783Z,0.30
2023-03-29T10:45:30.271Z,0.30
2023-03-29T10:47:58.367Z,0.30
2023-03-29T10:50:27.263Z,0.30
2023-03-29T10:52:55.242Z,0.30
2023-03-29T10:55:23.414Z,0.30
2023-03-29T10:57:57.614Z,0.30
2023-03-29T11:02:57.500Z,0.40
2023-03-29T11:05:25.617Z,0.50
2023-03-29T11:07:59.945Z,0.30
2023-03-29T11:10:29.268Z,0.20
2023-03-29T11:13:00.840Z,0.30
2023-03-29T11:15:48.273Z,0.30
2023-03-29T11:18:16.227Z,0.30
2023-03-29T11:21:00.540Z,0.30
2023-03-29T11:23:46.004Z,0.30
2023-03-29T11:26:22.602Z,0.30
2023-03-29T11:28:53.304Z,0.40
2023-03-29T11:31:24.602Z,0.20
2023-03-29T11:34:13.125Z,0.30
2023-03-29T11:36:44.590Z,0.20
2023-03-29T11:39:15.916Z,0.30
2023-03-29T11:41:44.901Z,0.30
2023-03-29T11:44:29.803Z,0.30
2023-03-29T11:46:59.529Z,0.30
2023-03-29T11:49:37.506Z,0.30
2023-03-29T11:52:07.995Z,0.30
2023-03-29T11:54:47.229Z,0.30
2023-03-29T11:57:22.515Z,0.40
2023-03-29T12:00:19.795Z,0.30
2023-03-29T12:02:50.809Z,0.30
2023-03-29T12:05:39.236Z,0.30
2023-03-29T12:08:19.184Z,0.30
2023-03-29T12:10:51.760Z,0.30
2023-03-29T12:13:30.347Z,0.40
2023-03-29T12:15:58.225Z,0.30
2023-03-29T12:18:33.307Z,0.30
2023-03-29T12:21:02.145Z,0.40
2023-03-29T12:23:32.747Z,0.20
2023-03-29T12:26:19.570Z,0.40
2023-03-29T12:29:08.376Z,0.40
2023-03-29T12:31:40.051Z,0.40
2023-03-29T12:34:26.929Z,0.40
2023-03-29T12:37:16.576Z,0.40
2023-03-29T12:39:47.473Z,0.30
2023-03-29T12:42:34.837Z,0.40
2023-03-29T12:45:02.805Z,0.20
2023-03-29T12:47:37.470Z,0.30
2023-03-29T12:50:07.053Z,0.30
2023-03-29T12:52:35.275Z,0.40
2023-03-29T12:55:23.245Z,0.30
2023-03-29T12:58:01.596Z,0.30
2023-03-29T13:00:32.926Z,0.40
2023-03-29T13:03:18.744Z,0.30
2023-03-29T13:05:48.300Z,0.30
2023-03-29T13:08:22.199Z,0.30
2023-03-29T13:10:53.987Z,0.30
2023-03-29T13:13:30.877Z,0.30
2023-03-29T13:16:28.390Z,0.40
2023-03-29T13:19:00.397Z,0.40
2023-03-29T13:21:28.660Z,0.30
2023-03-29T13:24:32.343Z,0.40
2023-03-29T13:27:00.469Z,0.30
2023-03-29T13:29:43.345Z,0.30
2023-03-29T13:32:16.846Z,0.30
2023-03-29T13:35:03.876Z,0.20
2023-03-29T13:37:32.230Z,0.40
2023-03-29T13:40:00.186Z,0.40
2023-03-29T13:42:36.497Z,0.40
2023-03-29T13:45:06.003Z,0.40
2023-03-29T13:47:33.861Z,0.30
2023-03-29T13:50:25.831Z,0.20
2023-03-29T13:53:03.958Z,0.20
2023-03-29T13:55:38.506Z,0.30
2023-03-29T13:58:11.629Z,0.20
2023-03-29T14:00:47.197Z,0.30
2023-03-29T14:03:16.285Z,0.30
2023-03-29T14:05:47.243Z,0.40
2023-03-29T14:08:18.617Z,0.50
2023-03-29T14:10:46.818Z,0.50
2023-03-29T14:13:15.502Z,0.50
2023-03-29T14:15:49.483Z,0.50
2023-03-29T14:18:19.687Z,0.60
2023-03-29T14:20:49.265Z,0.40
2023-03-29T14:23:21.213Z,0.40
2023-03-29T14:25:49.443Z,0.40
2023-03-29T14:28:24.410Z,0.40
2023-03-29T14:30:52.961Z,0.40
2023-03-29T14:33:29.825Z,0.30
2023-03-29T14:35:58.820Z,0.40
2023-03-29T14:38:27.079Z,0.40
2023-03-29T14:40:58.086Z,0.50
2023-03-29T14:43:30.378Z,0.40
2023-03-29T14:45:58.443Z,0.40
2023-03-29T14:48:28.075Z,0.30
2023-03-29T14:50:56.236Z,0.40
2023-03-29T14:53:24.396Z,0.30
2023-03-29T14:55:52.734Z,0.30
2023-03-29T14:58:34.019Z,0.30
2023-03-29T15:01:05.565Z,0.40
2023-03-29T15:03:42.536Z,0.30
2023-03-29T15:06:10.479Z,0.40
2023-03-29T15:08:44.072Z,0.30
2023-03-29T15:11:19.842Z,0.40
2023-03-29T15:13:47.858Z,0.40
2023-03-29T15:16:21.094Z,0.30
2023-03-29T15:18:49.882Z,0.40
2023-03-29T15:21:19.810Z,0.40
2023-03-29T15:23:48.419Z,0.40
2023-03-29T15:26:31.021Z,0.40
2023-03-29T15:29:09.181Z,0.40
2023-03-29T15:31:38.753Z,0.30
2023-03-29T15:34:13.227Z,0.40
2023-03-29T15:36:43.313Z,0.40
2023-03-29T15:39:14.334Z,0.30
2023-03-29T15:41:42.287Z,0.60
2023-03-29T15:44:10.654Z,0.60
2023-03-29T15:46:38.807Z,1.00
2023-03-29T15:49:09.466Z,0.70
2023-03-29T15:51:39.688Z,0.60
2023-03-29T15:54:09.433Z,0.80
2023-03-29T15:56:38.227Z,0.70
2023-03-29T15:59:06.996Z,0.50
2023-03-29T16:01:36.634Z,0.30
2023-03-29T16:04:10.440Z,0.40
2023-03-29T16:06:38.739Z,0.30
2023-03-29T16:09:07.909Z,0.40
2023-03-29T16:11:35.802Z,0.30
2023-03-29T16:14:06.896Z,0.40
2023-03-29T16:16:35.888Z,0.40
2023-03-29T16:19:05.234Z,0.50
2023-03-29T16:21:34.004Z,0.40
2023-03-29T16:24:02.243Z,0.40
2023-03-29T16:26:31.809Z,0.30
2023-03-29T16:28:59.875Z,0.40
2023-03-29T16:31:27.793Z,0.30
2023-03-29T16:33:56.369Z,0.30
2023-03-29T16:36:24.212Z,0.40
2023-03-29T16:38:57.730Z,0.30
2023-03-29T16:41:25.880Z,0.40
2023-03-29T16:43:53.754Z,0.30
2023-03-29T16:46:22.177Z,0.30
2023-03-29T16:48:51.466Z,0.30
2023-03-29T16:51:19.961Z,0.50
2023-03-29T16:53:47.791Z,0.50
2023-03-29T16:56:15.888Z,0.50
2023-03-29T16:58:43.887Z,0.40
2023-03-29T17:01:16.126Z,0.40
2023-03-29T17:03:44.743Z,0.60
2023-03-29T17:06:13.016Z,0.40
2023-03-29T17:08:42.704Z,0.40
2023-03-29T17:11:11.891Z,0.30
2023-03-29T17:13:40.734Z,0.30
2023-03-29T17:16:08.666Z,0.40
2023-03-29T17:18:37.745Z,0.30
2023-03-29T17:21:05.907Z,0.40
2023-03-29T17:23:34.829Z,0.30
2023-03-29T17:26:03.113Z,0.30
2023-03-29T17:28:31.373Z,0.30
2023-03-29T17:30:59.258Z,0.40
2023-03-29T17:33:27.628Z,0.50
2023-03-29T17:35:55.920Z,0.30
2023-03-29T17:38:23.939Z,0.40
2023-03-29T17:40:52.597Z,0.40
2023-03-29T17:43:20.400Z,0.40
2023-03-29T17:45:52.309Z,0.40
2023-03-29T17:48:20.141Z,0.40
2023-03-29T17:50:48.589Z,0.30
2023-03-29T17:53:16.393Z,0.30
2023-03-29T17:55:46.044Z,0.50
2023-03-29T17:58:14.332Z,0.50
2023-03-29T18:00:42.098Z,0.40
2023-03-29T18:03:10.637Z,0.30
2023-03-29T18:05:38.561Z,0.40
2023-03-29T18:08:06.338Z,0.50
2023-03-29T18:10:35.150Z,1.00
2023-03-29T18:13:03.085Z,0.40
2023-03-29T18:15:31.017Z,0.50
2023-03-29T18:17:59.960Z,0.40
2023-03-29T18:20:27.874Z,0.40
2023-03-29T18:22:59.434Z,0.30
2023-03-29T18:25:27.701Z,0.40
2023-03-29T18:27:55.454Z,0.30
2023-03-29T18:30:23.361Z,0.40
2023-03-29T18:32:53.259Z,0.60
2023-03-29T18:35:23.900Z,0.40
2023-03-29T18:37:52.556Z,0.30
2023-03-29T18:40:24.678Z,0.40
2023-03-29T18:42:54.304Z,0.30
2023-03-29T18:45:22.353Z,0.30
2023-03-29T18:47:50.638Z,0.40
2023-03-29T18:50:18.836Z,0.60
2023-03-29T18:52:46.691Z,0.40
2023-03-29T18:55:14.726Z,0.40
2023-03-29T18:57:42.720Z,0.40
2023-03-29T19:00:13.974Z,0.50
2023-03-29T19:02:43.148Z,0.40
2023-03-29T19:05:11.256Z,0.50
2023-03-29T19:07:39.359Z,0.50
2023-03-29T19:10:08.223Z,0.30
2023-03-29T19:12:36.350Z,0.30
2023-03-29T19:15:07.141Z,0.30
2023-03-29T19:17:35.291Z,0.30
2023-03-29T19:20:06.055Z,0.30
2023-03-29T19:22:34.355Z,0.50
2023-03-29T19:25:02.857Z,0.40
2023-03-29T19:27:32.052Z,0.40
2023-03-29T19:30:00.625Z,0.30
2023-03-29T19:32:28.598Z,0.30
2023-03-29T19:35:02.014Z,0.40
2023-03-29T19:37:29.969Z,1.20
2023-03-29T19:39:58.364Z,0.40
2023-03-29T19:42:26.480Z,0.40
2023-03-29T19:44:54.277Z,0.40
2023-03-29T19:47:22.162Z,0.30
2023-03-29T19:49:50.278Z,0.40
2023-03-29T19:52:18.078Z,0.30
2023-03-29T19:54:46.082Z,0.40
2023-03-29T19:57:14.060Z,0.20
2023-03-29T19:59:43.074Z,0.20
2023-03-29T20:02:18.288Z,0.20
2023-03-29T20:04:46.374Z,0.30
2023-03-29T20:07:14.197Z,0.30
2023-03-29T20:09:44.649Z,0.30
2023-03-29T20:12:13.146Z,0.30
2023-03-29T20:14:43.392Z,0.40
2023-03-29T20:17:11.378Z,0.30
2023-03-29T20:19:44.212Z,0.20
2023-03-29T20:22:12.121Z,0.30
2023-03-29T20:24:41.853Z,0.30
2023-03-29T20:27:09.635Z,0.40
2023-03-29T20:29:37.969Z,0.30
2023-03-29T20:32:06.049Z,0.30
2023-03-29T20:34:34.102Z,0.40
2023-03-29T20:37:02.126Z,0.40
2023-03-29T20:39:32.818Z,0.30
2023-03-29T20:42:01.214Z,0.50
2023-03-29T20:44:29.393Z,0.30
2023-03-29T20:47:08.368Z,0.30
2023-03-29T20:49:39.221Z,0.30
2023-03-29T20:52:10.600Z,0.50
2023-03-29T20:54:38.847Z,0.50
2023-03-29T20:57:07.705Z,0.30
2023-03-29T20:59:36.047Z,0.40
2023-03-29T21:02:04.274Z,0.40
2023-03-29T21:04:32.996Z,0.40
2023-03-29T21:07:03.364Z,0.30
2023-03-29T21:09:34.137Z,0.40
2023-03-29T21:12:03.383Z,0.40
2023-03-29T21:14:33.448Z,0.40
2023-03-29T21:17:01.502Z,0.40
2023-03-29T21:19:30.518Z,0.40
2023-03-29T21:21:58.988Z,0.50
2023-03-29T21:24:28.131Z,0.40
2023-03-29T21:26:56.165Z,0.30
2023-03-29T21:29:24.257Z,0.40
2023-03-29T21:31:52.253Z,0.30
2023-03-29T21:34:20.320Z,0.40
2023-03-29T21:36:49.276Z,0.60
2023-03-29T21:39:17.264Z,0.50
2023-03-29T21:41:45.145Z,0.60
2023-03-29T21:44:15.455Z,0.50
2023-03-29T21:46:43.527Z,0.40
2023-03-29T21:49:11.848Z,0.30
2023-03-29T21:51:40.451Z,0.50
2023-03-29T21:54:09.108Z,0.50
2023-03-29T21:56:38.556Z,0.30
2023-03-29T21:59:06.877Z,0.40
2023-03-29T22:01:35.163Z,0.50
2023-03-29T22:04:04.244Z,0.50
2023-03-29T22:06:40.129Z,0.40
2023-03-29T22:09:10.678Z,0.40
2023-03-29T22:11:38.743Z,0.40
2023-03-29T22:14:16.433Z,0.40
2023-03-29T22:16:45.679Z,0.50
2023-03-29T22:19:13.596Z,0.40
2023-03-29T22:21:42.714Z,0.40
2023-03-29T22:24:10.595Z,0.40
2023-03-29T22:26:38.455Z,0.30
2023-03-29T22:29:08.052Z,0.30
2023-03-29T22:31:37.787Z,0.30
2023-03-29T22:34:06.283Z,0.40
2023-03-29T22:36:35.565Z,0.40
2023-03-29T22:39:03.947Z,0.40
2023-03-29T22:41:31.974Z,0.40
2023-03-29T22:44:01.266Z,0.40
2023-03-29T22:46:30.263Z,0.40
2023-03-29T22:48:58.322Z,0.40
2023-03-29T22:51:27.409Z,0.40
2023-03-29T22:55:39.093Z,0.50
2023-03-29T22:58:07.403Z,0.50
2023-03-29T23:00:35.489Z,0.60
2023-03-29T23:03:03.651Z,0.60
2023-03-29T23:05:31.809Z,0.50
2023-03-29T23:07:59.832Z,0.60
2023-03-29T23:10:34.571Z,0.70
2023-03-29T23:13:08.601Z,0.60
2023-03-29T23:15:37.497Z,0.50
2023-03-29T23:18:06.325Z,0.30
2023-03-29T23:20:34.553Z,0.40
2023-03-29T23:23:02.527Z,0.70
2023-03-29T23:25:30.338Z,0.40
2023-03-29T23:27:58.495Z,0.40
2023-03-29T23:30:29.759Z,0.50
2023-03-29T23:32:58.251Z,0.60
2023-03-29T23:35:26.223Z,0.50
2023-03-29T23:37:56.393Z,0.50
2023-03-29T23:40:24.491Z,0.40
2023-03-29T23:42:59.264Z,0.70
2023-03-29T23:45:28.308Z,0.50
2023-03-29T23:47:57.165Z,0.50
2023-03-29T23:50:29.999Z,0.70
2023-03-29T23:52:58.664Z,0.60
2023-03-29T23:55:26.586Z,0.60
2023-03-29T23:57:54.312Z,0.60
